sensor_id;sensor_type;location;lat;lon;timestamp;temperature;humidity
8188;DHT22;4135;49.184;9.722;2022-08-19T00:00:24;24.40;64.90
8188;DHT22;4135;49.184;9.722;2022-08-19T00:02:54;24.40;65.00
8188;DHT22;4135;49.184;9.722;2022-08-19T00:05:23;24.40;65.00
8188;DHT22;4135;49.184;9.722;2022-08-19T00:07:53;24.40;65.00
8188;DHT22;4135;49.184;9.722;2022-08-19T00:10:22;24.40;65.20
8188;DHT22;4135;49.184;9.722;2022-08-19T00:12:53;24.40;65.30
8188;DHT22;4135;49.184;9.722;2022-08-19T00:15:23;24.40;65.20
8188;DHT22;4135;49.184;9.722;2022-08-19T00:17:54;24.40;65.20
8188;DHT22;4135;49.184;9.722;2022-08-19T00:20:23;24.40;65.30
8188;DHT22;4135;49.184;9.722;2022-08-19T00:22:53;24.30;65.20
8188;DHT22;4135;49.184;9.722;2022-08-19T00:25:23;24.30;65.30
8188;DHT22;4135;49.184;9.722;2022-08-19T00:27:53;24.30;65.30
8188;DHT22;4135;49.184;9.722;2022-08-19T00:30:22;24.30;65.30
8188;DHT22;4135;49.184;9.722;2022-08-19T00:32:52;24.30;65.30
8188;DHT22;4135;49.184;9.722;2022-08-19T00:35:23;24.30;65.20
8188;DHT22;4135;49.184;9.722;2022-08-19T00:37:53;24.30;65.20
8188;DHT22;4135;49.184;9.722;2022-08-19T00:40:23;24.30;65.30
8188;DHT22;4135;49.184;9.722;2022-08-19T00:42:54;24.20;65.20
8188;DHT22;4135;49.184;9.722;2022-08-19T00:45:26;24.20;65.20
8188;DHT22;4135;49.184;9.722;2022-08-19T00:47:55;24.20;65.20
8188;DHT22;4135;49.184;9.722;2022-08-19T00:50:25;24.20;65.20
8188;DHT22;4135;49.184;9.722;2022-08-19T00:52:54;24.20;65.30
8188;DHT22;4135;49.184;9.722;2022-08-19T00:55:26;24.20;65.20
8188;DHT22;4135;49.184;9.722;2022-08-19T00:58:11;24.10;65.20
8188;DHT22;4135;49.184;9.722;2022-08-19T01:00:41;24.10;65.20
8188;DHT22;4135;49.184;9.722;2022-08-19T01:03:13;24.10;65.20
8188;DHT22;4135;49.184;9.722;2022-08-19T01:05:44;24.10;65.20
8188;DHT22;4135;49.184;9.722;2022-08-19T01:08:16;24.10;65.30
8188;DHT22;4135;49.184;9.722;2022-08-19T01:10:56;24.10;65.40
8188;DHT22;4135;49.184;9.722;2022-08-19T01:13:29;24.10;65.40
8188;DHT22;4135;49.184;9.722;2022-08-19T01:16:06;24.10;65.40
8188;DHT22;4135;49.184;9.722;2022-08-19T01:18:40;24.10;65.40
8188;DHT22;4135;49.184;9.722;2022-08-19T01:23:58;24.10;65.50
8188;DHT22;4135;49.184;9.722;2022-08-19T01:26:28;24.10;65.60
8188;DHT22;4135;49.184;9.722;2022-08-19T01:28:59;24.00;65.60
8188;DHT22;4135;49.184;9.722;2022-08-19T01:31:30;24.00;65.70
8188;DHT22;4135;49.184;9.722;2022-08-19T01:34:01;24.00;65.80
8188;DHT22;4135;49.184;9.722;2022-08-19T01:39:09;24.00;65.90
8188;DHT22;4135;49.184;9.722;2022-08-19T01:41:38;24.00;66.00
8188;DHT22;4135;49.184;9.722;2022-08-19T01:44:09;23.90;66.00
8188;DHT22;4135;49.184;9.722;2022-08-19T01:46:39;24.00;66.10
8188;DHT22;4135;49.184;9.722;2022-08-19T01:49:09;24.00;66.20
8188;DHT22;4135;49.184;9.722;2022-08-19T01:51:39;23.90;66.10
8188;DHT22;4135;49.184;9.722;2022-08-19T01:54:10;23.90;66.10
8188;DHT22;4135;49.184;9.722;2022-08-19T01:56:40;23.90;66.20
8188;DHT22;4135;49.184;9.722;2022-08-19T01:59:13;23.90;66.20
8188;DHT22;4135;49.184;9.722;2022-08-19T02:01:43;23.90;66.10
8188;DHT22;4135;49.184;9.722;2022-08-19T02:04:13;23.90;66.10
8188;DHT22;4135;49.184;9.722;2022-08-19T02:06:43;23.90;66.00
8188;DHT22;4135;49.184;9.722;2022-08-19T02:09:13;23.90;66.00
8188;DHT22;4135;49.184;9.722;2022-08-19T02:11:43;23.90;66.10
8188;DHT22;4135;49.184;9.722;2022-08-19T02:14:12;23.90;66.20
8188;DHT22;4135;49.184;9.722;2022-08-19T02:16:43;23.90;66.90
8188;DHT22;4135;49.184;9.722;2022-08-19T02:19:12;23.80;66.00
8188;DHT22;4135;49.184;9.722;2022-08-19T02:21:42;23.90;66.30
8188;DHT22;4135;49.184;9.722;2022-08-19T02:24:12;23.80;66.20
8188;DHT22;4135;49.184;9.722;2022-08-19T02:26:42;23.80;66.20
8188;DHT22;4135;49.184;9.722;2022-08-19T02:29:11;23.80;66.20
8188;DHT22;4135;49.184;9.722;2022-08-19T02:31:41;23.80;66.30
8188;DHT22;4135;49.184;9.722;2022-08-19T02:34:10;23.80;66.20
8188;DHT22;4135;49.184;9.722;2022-08-19T02:36:40;23.80;66.30
8188;DHT22;4135;49.184;9.722;2022-08-19T02:39:10;23.80;66.40
8188;DHT22;4135;49.184;9.722;2022-08-19T02:41:39;23.80;66.40
8188;DHT22;4135;49.184;9.722;2022-08-19T02:44:10;23.80;66.40
8188;DHT22;4135;49.184;9.722;2022-08-19T02:46:39;23.80;66.40
8188;DHT22;4135;49.184;9.722;2022-08-19T02:49:09;23.80;66.40
8188;DHT22;4135;49.184;9.722;2022-08-19T02:51:42;23.80;66.40
8188;DHT22;4135;49.184;9.722;2022-08-19T02:54:12;23.80;66.40
8188;DHT22;4135;49.184;9.722;2022-08-19T02:56:43;23.80;66.40
8188;DHT22;4135;49.184;9.722;2022-08-19T02:59:13;23.80;66.40
8188;DHT22;4135;49.184;9.722;2022-08-19T03:01:43;23.80;66.50
8188;DHT22;4135;49.184;9.722;2022-08-19T03:04:14;23.70;66.50
8188;DHT22;4135;49.184;9.722;2022-08-19T03:06:46;23.80;66.60
8188;DHT22;4135;49.184;9.722;2022-08-19T03:09:17;23.70;66.50
8188;DHT22;4135;49.184;9.722;2022-08-19T03:11:47;23.70;66.50
8188;DHT22;4135;49.184;9.722;2022-08-19T03:14:17;23.70;66.50
8188;DHT22;4135;49.184;9.722;2022-08-19T03:16:49;23.70;66.50
8188;DHT22;4135;49.184;9.722;2022-08-19T03:19:20;23.70;66.50
8188;DHT22;4135;49.184;9.722;2022-08-19T03:21:53;23.70;66.50
8188;DHT22;4135;49.184;9.722;2022-08-19T03:24:22;23.70;66.50
8188;DHT22;4135;49.184;9.722;2022-08-19T03:26:55;23.70;66.60
8188;DHT22;4135;49.184;9.722;2022-08-19T03:29:29;23.70;66.60
8188;DHT22;4135;49.184;9.722;2022-08-19T03:32:04;23.70;66.70
8188;DHT22;4135;49.184;9.722;2022-08-19T03:34:36;23.70;66.70
8188;DHT22;4135;49.184;9.722;2022-08-19T03:37:08;23.70;66.70
8188;DHT22;4135;49.184;9.722;2022-08-19T03:39:39;23.70;66.70
8188;DHT22;4135;49.184;9.722;2022-08-19T03:42:09;23.70;66.80
8188;DHT22;4135;49.184;9.722;2022-08-19T03:44:39;23.70;66.80
8188;DHT22;4135;49.184;9.722;2022-08-19T03:47:09;23.70;66.90
8188;DHT22;4135;49.184;9.722;2022-08-19T03:49:38;23.60;66.80
8188;DHT22;4135;49.184;9.722;2022-08-19T03:52:08;23.70;67.00
8188;DHT22;4135;49.184;9.722;2022-08-19T03:54:38;23.70;67.00
8188;DHT22;4135;49.184;9.722;2022-08-19T03:57:07;23.60;67.00
8188;DHT22;4135;49.184;9.722;2022-08-19T03:59:38;23.60;66.90
8188;DHT22;4135;49.184;9.722;2022-08-19T04:02:11;23.60;67.10
8188;DHT22;4135;49.184;9.722;2022-08-19T04:04:43;23.60;67.00
8188;DHT22;4135;49.184;9.722;2022-08-19T04:07:13;23.60;67.00
8188;DHT22;4135;49.184;9.722;2022-08-19T04:09:50;23.60;67.20
8188;DHT22;4135;49.184;9.722;2022-08-19T04:12:21;23.60;67.20
8188;DHT22;4135;49.184;9.722;2022-08-19T04:14:50;23.60;67.30
8188;DHT22;4135;49.184;9.722;2022-08-19T04:17:20;23.60;67.40
8188;DHT22;4135;49.184;9.722;2022-08-19T04:19:51;23.60;67.30
8188;DHT22;4135;49.184;9.722;2022-08-19T04:22:21;23.60;67.50
8188;DHT22;4135;49.184;9.722;2022-08-19T04:24:50;23.60;67.40
8188;DHT22;4135;49.184;9.722;2022-08-19T04:27:20;23.60;67.30
8188;DHT22;4135;49.184;9.722;2022-08-19T04:29:49;23.60;67.40
8188;DHT22;4135;49.184;9.722;2022-08-19T04:32:19;23.60;67.40
8188;DHT22;4135;49.184;9.722;2022-08-19T04:34:48;23.60;67.50
8188;DHT22;4135;49.184;9.722;2022-08-19T04:37:17;23.60;67.60
8188;DHT22;4135;49.184;9.722;2022-08-19T04:39:47;23.60;67.60
8188;DHT22;4135;49.184;9.722;2022-08-19T04:42:35;23.60;67.70
8188;DHT22;4135;49.184;9.722;2022-08-19T04:45:12;23.50;67.70
8188;DHT22;4135;49.184;9.722;2022-08-19T04:47:43;23.50;67.70
8188;DHT22;4135;49.184;9.722;2022-08-19T04:50:14;23.50;67.80
8188;DHT22;4135;49.184;9.722;2022-08-19T04:52:43;23.50;67.90
8188;DHT22;4135;49.184;9.722;2022-08-19T04:55:13;23.50;68.00
8188;DHT22;4135;49.184;9.722;2022-08-19T04:57:43;23.50;67.90
8188;DHT22;4135;49.184;9.722;2022-08-19T05:00:13;23.50;68.00
8188;DHT22;4135;49.184;9.722;2022-08-19T05:02:42;23.50;68.20
8188;DHT22;4135;49.184;9.722;2022-08-19T05:05:12;23.40;68.10
8188;DHT22;4135;49.184;9.722;2022-08-19T05:07:42;23.40;68.40
8188;DHT22;4135;49.184;9.722;2022-08-19T05:10:12;23.50;68.40
8188;DHT22;4135;49.184;9.722;2022-08-19T05:12:41;23.40;68.40
8188;DHT22;4135;49.184;9.722;2022-08-19T05:15:11;23.50;68.70
8188;DHT22;4135;49.184;9.722;2022-08-19T05:17:41;23.50;68.70
8188;DHT22;4135;49.184;9.722;2022-08-19T05:20:30;23.50;68.80
8188;DHT22;4135;49.184;9.722;2022-08-19T05:23:18;23.50;68.90
8188;DHT22;4135;49.184;9.722;2022-08-19T05:25:48;23.40;68.90
8188;DHT22;4135;49.184;9.722;2022-08-19T05:28:26;23.50;68.80
8188;DHT22;4135;49.184;9.722;2022-08-19T05:30:55;23.50;68.80
8188;DHT22;4135;49.184;9.722;2022-08-19T05:33:25;23.50;68.90
8188;DHT22;4135;49.184;9.722;2022-08-19T05:35:54;23.40;68.70
8188;DHT22;4135;49.184;9.722;2022-08-19T05:38:25;23.40;68.90
8188;DHT22;4135;49.184;9.722;2022-08-19T05:40:56;23.50;69.20
8188;DHT22;4135;49.184;9.722;2022-08-19T05:43:26;23.50;69.30
8188;DHT22;4135;49.184;9.722;2022-08-19T05:45:55;23.50;69.00
8188;DHT22;4135;49.184;9.722;2022-08-19T05:48:25;23.50;69.30
8188;DHT22;4135;49.184;9.722;2022-08-19T05:50:55;23.50;69.20
8188;DHT22;4135;49.184;9.722;2022-08-19T05:53:26;23.50;69.40
8188;DHT22;4135;49.184;9.722;2022-08-19T05:55:55;23.40;69.60
8188;DHT22;4135;49.184;9.722;2022-08-19T05:58:25;23.40;69.90
8188;DHT22;4135;49.184;9.722;2022-08-19T06:00:55;23.40;70.10
8188;DHT22;4135;49.184;9.722;2022-08-19T06:03:24;23.40;70.40
8188;DHT22;4135;49.184;9.722;2022-08-19T06:05:54;23.30;70.50
8188;DHT22;4135;49.184;9.722;2022-08-19T06:08:24;23.30;70.60
8188;DHT22;4135;49.184;9.722;2022-08-19T06:10:54;23.30;70.60
8188;DHT22;4135;49.184;9.722;2022-08-19T06:13:24;23.30;70.80
8188;DHT22;4135;49.184;9.722;2022-08-19T06:15:55;23.30;70.80
8188;DHT22;4135;49.184;9.722;2022-08-19T06:18:24;23.30;70.80
8188;DHT22;4135;49.184;9.722;2022-08-19T06:20:54;23.30;70.90
8188;DHT22;4135;49.184;9.722;2022-08-19T06:23:23;23.30;71.00
8188;DHT22;4135;49.184;9.722;2022-08-19T06:25:53;23.20;70.90
8188;DHT22;4135;49.184;9.722;2022-08-19T06:28:22;23.30;71.20
8188;DHT22;4135;49.184;9.722;2022-08-19T06:30:52;23.20;71.40
8188;DHT22;4135;49.184;9.722;2022-08-19T06:33:22;23.20;71.40
8188;DHT22;4135;49.184;9.722;2022-08-19T06:35:51;23.30;71.40
8188;DHT22;4135;49.184;9.722;2022-08-19T06:38:21;23.20;71.60
8188;DHT22;4135;49.184;9.722;2022-08-19T06:41:00;23.20;71.70
8188;DHT22;4135;49.184;9.722;2022-08-19T06:43:30;23.20;72.40
8188;DHT22;4135;49.184;9.722;2022-08-19T06:45:59;23.10;72.80
8188;DHT22;4135;49.184;9.722;2022-08-19T06:48:30;23.20;73.00
8188;DHT22;4135;49.184;9.722;2022-08-19T06:51:01;23.00;73.50
8188;DHT22;4135;49.184;9.722;2022-08-19T06:53:34;23.10;73.70
8188;DHT22;4135;49.184;9.722;2022-08-19T06:56:04;23.10;74.10
8188;DHT22;4135;49.184;9.722;2022-08-19T06:58:34;22.90;75.00
8188;DHT22;4135;49.184;9.722;2022-08-19T07:01:04;22.90;76.00
8188;DHT22;4135;49.184;9.722;2022-08-19T07:03:35;22.80;77.10
8188;DHT22;4135;49.184;9.722;2022-08-19T07:06:07;22.70;78.70
8188;DHT22;4135;49.184;9.722;2022-08-19T07:08:38;22.60;79.40
8188;DHT22;4135;49.184;9.722;2022-08-19T07:11:12;22.70;78.90
8188;DHT22;4135;49.184;9.722;2022-08-19T07:13:42;22.80;77.80
8188;DHT22;4135;49.184;9.722;2022-08-19T07:16:16;22.90;76.30
8188;DHT22;4135;49.184;9.722;2022-08-19T07:18:47;23.10;75.50
8188;DHT22;4135;49.184;9.722;2022-08-19T07:21:23;23.00;75.90
8188;DHT22;4135;49.184;9.722;2022-08-19T07:23:58;23.10;75.50
8188;DHT22;4135;49.184;9.722;2022-08-19T07:26:31;23.10;75.20
8188;DHT22;4135;49.184;9.722;2022-08-19T07:29:01;23.10;74.80
8188;DHT22;4135;49.184;9.722;2022-08-19T07:31:30;23.10;74.70
8188;DHT22;4135;49.184;9.722;2022-08-19T07:34:07;23.10;74.20
8188;DHT22;4135;49.184;9.722;2022-08-19T07:36:39;23.10;74.20
8188;DHT22;4135;49.184;9.722;2022-08-19T07:39:14;23.10;74.00
8188;DHT22;4135;49.184;9.722;2022-08-19T07:41:44;23.10;75.80
8188;DHT22;4135;49.184;9.722;2022-08-19T07:44:15;23.00;75.40
8188;DHT22;4135;49.184;9.722;2022-08-19T07:46:47;23.00;75.60
8188;DHT22;4135;49.184;9.722;2022-08-19T07:49:18;23.10;75.20
8188;DHT22;4135;49.184;9.722;2022-08-19T07:54:22;23.10;75.40
8188;DHT22;4135;49.184;9.722;2022-08-19T07:56:51;23.00;76.20
8188;DHT22;4135;49.184;9.722;2022-08-19T07:59:23;23.00;76.50
8188;DHT22;4135;49.184;9.722;2022-08-19T08:01:53;23.00;76.30
8188;DHT22;4135;49.184;9.722;2022-08-19T08:04:23;23.00;76.10
8188;DHT22;4135;49.184;9.722;2022-08-19T08:07:11;23.00;77.20
8188;DHT22;4135;49.184;9.722;2022-08-19T08:09:59;22.80;78.60
8188;DHT22;4135;49.184;9.722;2022-08-19T08:12:40;22.90;77.40
8188;DHT22;4135;49.184;9.722;2022-08-19T08:15:16;22.80;78.20
8188;DHT22;4135;49.184;9.722;2022-08-19T08:17:45;22.90;78.10
8188;DHT22;4135;49.184;9.722;2022-08-19T08:20:16;23.00;77.50
8188;DHT22;4135;49.184;9.722;2022-08-19T08:22:47;23.00;78.20
8188;DHT22;4135;49.184;9.722;2022-08-19T08:25:36;22.90;77.70
8188;DHT22;4135;49.184;9.722;2022-08-19T08:28:06;22.90;78.60
8188;DHT22;4135;49.184;9.722;2022-08-19T08:30:38;22.80;78.70
8188;DHT22;4135;49.184;9.722;2022-08-19T08:33:10;22.90;78.20
8188;DHT22;4135;49.184;9.722;2022-08-19T08:35:40;23.00;78.10
8188;DHT22;4135;49.184;9.722;2022-08-19T08:38:15;23.00;77.70
8188;DHT22;4135;49.184;9.722;2022-08-19T08:41:06;23.00;77.40
8188;DHT22;4135;49.184;9.722;2022-08-19T08:43:40;23.00;77.70
8188;DHT22;4135;49.184;9.722;2022-08-19T08:46:22;23.00;77.80
8188;DHT22;4135;49.184;9.722;2022-08-19T08:49:06;23.00;78.00
8188;DHT22;4135;49.184;9.722;2022-08-19T08:51:45;23.00;77.60
8188;DHT22;4135;49.184;9.722;2022-08-19T08:54:20;23.00;78.20
8188;DHT22;4135;49.184;9.722;2022-08-19T08:56:51;23.00;78.50
8188;DHT22;4135;49.184;9.722;2022-08-19T08:59:29;23.00;78.80
8188;DHT22;4135;49.184;9.722;2022-08-19T09:02:01;22.90;79.60
8188;DHT22;4135;49.184;9.722;2022-08-19T09:04:31;23.00;79.30
8188;DHT22;4135;49.184;9.722;2022-08-19T09:07:13;23.00;79.30
8188;DHT22;4135;49.184;9.722;2022-08-19T09:09:49;23.00;78.80
8188;DHT22;4135;49.184;9.722;2022-08-19T09:15:16;23.00;79.10
8188;DHT22;4135;49.184;9.722;2022-08-19T09:17:47;23.00;79.60
8188;DHT22;4135;49.184;9.722;2022-08-19T09:20:22;22.90;81.20
8188;DHT22;4135;49.184;9.722;2022-08-19T09:22:52;22.90;81.30
8188;DHT22;4135;49.184;9.722;2022-08-19T09:25:22;22.90;82.00
8188;DHT22;4135;49.184;9.722;2022-08-19T09:27:53;22.90;81.70
8188;DHT22;4135;49.184;9.722;2022-08-19T09:30:26;23.00;80.90
8188;DHT22;4135;49.184;9.722;2022-08-19T09:32:56;23.10;80.90
8188;DHT22;4135;49.184;9.722;2022-08-19T09:35:27;23.10;81.10
8188;DHT22;4135;49.184;9.722;2022-08-19T09:37:58;23.10;80.80
8188;DHT22;4135;49.184;9.722;2022-08-19T09:40:29;23.10;82.10
8188;DHT22;4135;49.184;9.722;2022-08-19T09:42:59;23.10;82.30
8188;DHT22;4135;49.184;9.722;2022-08-19T09:45:31;23.10;82.80
8188;DHT22;4135;49.184;9.722;2022-08-19T09:48:01;23.10;82.10
8188;DHT22;4135;49.184;9.722;2022-08-19T09:50:32;23.10;81.40
8188;DHT22;4135;49.184;9.722;2022-08-19T09:53:02;23.10;81.40
8188;DHT22;4135;49.184;9.722;2022-08-19T09:55:32;23.10;81.80
8188;DHT22;4135;49.184;9.722;2022-08-19T09:58:02;23.10;83.60
8188;DHT22;4135;49.184;9.722;2022-08-19T10:00:31;23.00;83.50
8188;DHT22;4135;49.184;9.722;2022-08-19T10:03:01;23.00;84.30
8188;DHT22;4135;49.184;9.722;2022-08-19T10:05:30;23.10;84.90
8188;DHT22;4135;49.184;9.722;2022-08-19T10:08:38;23.10;83.80
8188;DHT22;4135;49.184;9.722;2022-08-19T10:11:09;23.10;83.30
8188;DHT22;4135;49.184;9.722;2022-08-19T10:13:38;23.10;83.80
8188;DHT22;4135;49.184;9.722;2022-08-19T10:16:11;23.10;84.20
8188;DHT22;4135;49.184;9.722;2022-08-19T10:18:41;23.10;83.90
8188;DHT22;4135;49.184;9.722;2022-08-19T10:21:21;23.10;84.50
8188;DHT22;4135;49.184;9.722;2022-08-19T10:23:53;23.10;84.50
8188;DHT22;4135;49.184;9.722;2022-08-19T10:26:26;23.20;85.00
8188;DHT22;4135;49.184;9.722;2022-08-19T10:28:56;23.20;84.60
8188;DHT22;4135;49.184;9.722;2022-08-19T10:31:29;23.20;85.00
8188;DHT22;4135;49.184;9.722;2022-08-19T10:34:00;23.20;85.30
8188;DHT22;4135;49.184;9.722;2022-08-19T10:36:35;23.20;85.30
8188;DHT22;4135;49.184;9.722;2022-08-19T10:39:07;23.20;85.50
8188;DHT22;4135;49.184;9.722;2022-08-19T10:41:38;23.30;85.30
8188;DHT22;4135;49.184;9.722;2022-08-19T10:44:10;23.20;86.10
8188;DHT22;4135;49.184;9.722;2022-08-19T10:46:42;23.20;85.10
8188;DHT22;4135;49.184;9.722;2022-08-19T10:49:12;23.20;87.30
8188;DHT22;4135;49.184;9.722;2022-08-19T10:51:42;23.10;86.80
8188;DHT22;4135;49.184;9.722;2022-08-19T10:54:31;23.20;85.90
8188;DHT22;4135;49.184;9.722;2022-08-19T10:57:20;23.20;87.00
8188;DHT22;4135;49.184;9.722;2022-08-19T10:59:53;23.10;88.00
8188;DHT22;4135;49.184;9.722;2022-08-19T11:02:22;23.20;86.50
8188;DHT22;4135;49.184;9.722;2022-08-19T11:04:52;23.20;85.90
8188;DHT22;4135;49.184;9.722;2022-08-19T11:07:22;23.20;85.50
8188;DHT22;4135;49.184;9.722;2022-08-19T11:09:54;23.30;85.30
8188;DHT22;4135;49.184;9.722;2022-08-19T11:12:23;23.30;85.80
8188;DHT22;4135;49.184;9.722;2022-08-19T11:14:53;23.20;87.60
8188;DHT22;4135;49.184;9.722;2022-08-19T11:17:23;23.20;88.60
8188;DHT22;4135;49.184;9.722;2022-08-19T11:19:53;23.20;89.40
8188;DHT22;4135;49.184;9.722;2022-08-19T11:22:22;23.20;89.40
8188;DHT22;4135;49.184;9.722;2022-08-19T11:24:52;23.10;90.10
8188;DHT22;4135;49.184;9.722;2022-08-19T11:27:21;23.10;90.70
8188;DHT22;4135;49.184;9.722;2022-08-19T11:29:51;23.10;90.70
8188;DHT22;4135;49.184;9.722;2022-08-19T11:32:27;23.20;90.50
8188;DHT22;4135;49.184;9.722;2022-08-19T11:34:57;23.20;90.50
8188;DHT22;4135;49.184;9.722;2022-08-19T11:37:26;23.20;90.40
8188;DHT22;4135;49.184;9.722;2022-08-19T11:39:56;23.20;90.60
8188;DHT22;4135;49.184;9.722;2022-08-19T11:42:25;23.20;90.20
8188;DHT22;4135;49.184;9.722;2022-08-19T11:45:13;23.30;90.10
8188;DHT22;4135;49.184;9.722;2022-08-19T11:47:43;23.30;88.90
8188;DHT22;4135;49.184;9.722;2022-08-19T11:50:14;23.20;88.30
8188;DHT22;4135;49.184;9.722;2022-08-19T11:52:45;23.20;87.10
8188;DHT22;4135;49.184;9.722;2022-08-19T11:55:15;23.30;86.60
8188;DHT22;4135;49.184;9.722;2022-08-19T11:57:45;23.40;86.60
8188;DHT22;4135;49.184;9.722;2022-08-19T12:00:17;23.30;86.30
8188;DHT22;4135;49.184;9.722;2022-08-19T12:02:47;23.30;85.60
8188;DHT22;4135;49.184;9.722;2022-08-19T12:05:17;23.30;85.10
8188;DHT22;4135;49.184;9.722;2022-08-19T12:07:46;23.30;84.90
8188;DHT22;4135;49.184;9.722;2022-08-19T12:10:16;23.30;84.30
8188;DHT22;4135;49.184;9.722;2022-08-19T12:12:46;23.30;84.10
8188;DHT22;4135;49.184;9.722;2022-08-19T12:15:15;23.40;83.70
8188;DHT22;4135;49.184;9.722;2022-08-19T12:17:45;23.40;83.80
8188;DHT22;4135;49.184;9.722;2022-08-19T12:20:15;23.40;83.00
8188;DHT22;4135;49.184;9.722;2022-08-19T12:22:46;23.30;82.00
8188;DHT22;4135;49.184;9.722;2022-08-19T12:25:16;23.30;81.30
8188;DHT22;4135;49.184;9.722;2022-08-19T12:27:46;23.30;81.10
8188;DHT22;4135;49.184;9.722;2022-08-19T12:30:16;23.30;80.00
8188;DHT22;4135;49.184;9.722;2022-08-19T12:32:45;23.40;80.00
8188;DHT22;4135;49.184;9.722;2022-08-19T12:35:15;23.40;79.40
8188;DHT22;4135;49.184;9.722;2022-08-19T12:37:44;23.30;79.00
8188;DHT22;4135;49.184;9.722;2022-08-19T12:40:15;23.30;78.20
8188;DHT22;4135;49.184;9.722;2022-08-19T12:42:45;23.40;79.20
8188;DHT22;4135;49.184;9.722;2022-08-19T12:45:14;23.30;79.30
8188;DHT22;4135;49.184;9.722;2022-08-19T12:47:44;23.30;79.20
8188;DHT22;4135;49.184;9.722;2022-08-19T12:50:16;23.40;80.50
8188;DHT22;4135;49.184;9.722;2022-08-19T12:52:46;23.30;89.00
8188;DHT22;4135;49.184;9.722;2022-08-19T12:55:15;23.30;90.20
8188;DHT22;4135;49.184;9.722;2022-08-19T12:57:45;23.30;91.50
8188;DHT22;4135;49.184;9.722;2022-08-19T13:00:16;23.30;92.20
8188;DHT22;4135;49.184;9.722;2022-08-19T13:02:49;23.30;92.10
8188;DHT22;4135;49.184;9.722;2022-08-19T13:05:25;23.20;92.10
8188;DHT22;4135;49.184;9.722;2022-08-19T13:07:56;23.20;92.10
8188;DHT22;4135;49.184;9.722;2022-08-19T13:10:30;23.20;91.60
8188;DHT22;4135;49.184;9.722;2022-08-19T13:13:06;23.20;91.20
8188;DHT22;4135;49.184;9.722;2022-08-19T13:15:38;23.20;91.80
8188;DHT22;4135;49.184;9.722;2022-08-19T13:18:09;23.30;91.20
8188;DHT22;4135;49.184;9.722;2022-08-19T13:20:40;23.30;90.60
8188;DHT22;4135;49.184;9.722;2022-08-19T13:23:12;23.30;91.50
8188;DHT22;4135;49.184;9.722;2022-08-19T13:25:41;23.30;92.40
8188;DHT22;4135;49.184;9.722;2022-08-19T13:28:11;23.30;92.00
8188;DHT22;4135;49.184;9.722;2022-08-19T13:30:40;23.30;92.90
8188;DHT22;4135;49.184;9.722;2022-08-19T13:33:29;23.30;92.50
8188;DHT22;4135;49.184;9.722;2022-08-19T13:35:59;23.40;91.50
8188;DHT22;4135;49.184;9.722;2022-08-19T13:38:29;23.40;91.20
8188;DHT22;4135;49.184;9.722;2022-08-19T13:41:04;23.40;91.30
8188;DHT22;4135;49.184;9.722;2022-08-19T13:43:34;23.40;92.40
8188;DHT22;4135;49.184;9.722;2022-08-19T13:46:09;23.40;92.20
8188;DHT22;4135;49.184;9.722;2022-08-19T13:48:39;23.40;91.40
8188;DHT22;4135;49.184;9.722;2022-08-19T13:51:10;23.40;90.70
8188;DHT22;4135;49.184;9.722;2022-08-19T13:53:39;23.40;91.00
8188;DHT22;4135;49.184;9.722;2022-08-19T13:56:14;23.40;91.50
8188;DHT22;4135;49.184;9.722;2022-08-19T13:58:44;23.40;91.20
8188;DHT22;4135;49.184;9.722;2022-08-19T14:01:19;23.40;90.80
8188;DHT22;4135;49.184;9.722;2022-08-19T14:03:49;23.50;91.30
8188;DHT22;4135;49.184;9.722;2022-08-19T14:06:19;23.40;90.60
8188;DHT22;4135;49.184;9.722;2022-08-19T14:08:50;23.50;91.20
8188;DHT22;4135;49.184;9.722;2022-08-19T14:11:21;23.50;91.30
8188;DHT22;4135;49.184;9.722;2022-08-19T14:13:52;23.50;91.20
8188;DHT22;4135;49.184;9.722;2022-08-19T14:16:21;23.50;91.40
8188;DHT22;4135;49.184;9.722;2022-08-19T14:18:51;23.50;91.90
8188;DHT22;4135;49.184;9.722;2022-08-19T14:21:22;23.50;91.70
8188;DHT22;4135;49.184;9.722;2022-08-19T14:23:52;23.50;90.70
8188;DHT22;4135;49.184;9.722;2022-08-19T14:26:22;23.60;91.40
8188;DHT22;4135;49.184;9.722;2022-08-19T14:28:52;23.60;92.10
8188;DHT22;4135;49.184;9.722;2022-08-19T14:31:22;23.60;91.50
8188;DHT22;4135;49.184;9.722;2022-08-19T14:33:53;23.60;91.30
8188;DHT22;4135;49.184;9.722;2022-08-19T14:36:22;23.60;91.70
8188;DHT22;4135;49.184;9.722;2022-08-19T14:38:52;23.60;91.50
8188;DHT22;4135;49.184;9.722;2022-08-19T14:41:23;23.60;91.10
8188;DHT22;4135;49.184;9.722;2022-08-19T14:43:53;23.60;91.10
8188;DHT22;4135;49.184;9.722;2022-08-19T14:46:25;23.60;90.80
8188;DHT22;4135;49.184;9.722;2022-08-19T14:48:56;23.70;90.40
8188;DHT22;4135;49.184;9.722;2022-08-19T14:51:26;23.70;90.50
8188;DHT22;4135;49.184;9.722;2022-08-19T14:53:56;23.70;90.10
8188;DHT22;4135;49.184;9.722;2022-08-19T14:56:27;23.70;90.20
8188;DHT22;4135;49.184;9.722;2022-08-19T14:58:57;23.70;91.00
8188;DHT22;4135;49.184;9.722;2022-08-19T15:01:30;23.70;91.20
8188;DHT22;4135;49.184;9.722;2022-08-19T15:03:59;23.70;90.60
8188;DHT22;4135;49.184;9.722;2022-08-19T15:06:29;23.70;90.50
8188;DHT22;4135;49.184;9.722;2022-08-19T15:08:59;23.70;90.40
8188;DHT22;4135;49.184;9.722;2022-08-19T15:11:30;23.70;90.20
8188;DHT22;4135;49.184;9.722;2022-08-19T15:14:01;23.70;89.40
8188;DHT22;4135;49.184;9.722;2022-08-19T15:16:31;23.70;90.30
8188;DHT22;4135;49.184;9.722;2022-08-19T15:19:01;23.70;90.50
8188;DHT22;4135;49.184;9.722;2022-08-19T15:21:30;23.70;90.60
8188;DHT22;4135;49.184;9.722;2022-08-19T15:24:00;23.70;90.20
8188;DHT22;4135;49.184;9.722;2022-08-19T15:26:30;23.70;90.40
8188;DHT22;4135;49.184;9.722;2022-08-19T15:29:03;23.70;90.40
8188;DHT22;4135;49.184;9.722;2022-08-19T15:31:33;23.80;90.10
8188;DHT22;4135;49.184;9.722;2022-08-19T15:34:05;23.70;89.90
8188;DHT22;4135;49.184;9.722;2022-08-19T15:36:35;23.80;90.30
8188;DHT22;4135;49.184;9.722;2022-08-19T15:39:05;23.70;90.60
8188;DHT22;4135;49.184;9.722;2022-08-19T15:41:36;23.80;90.20
8188;DHT22;4135;49.184;9.722;2022-08-19T15:44:09;23.70;90.40
8188;DHT22;4135;49.184;9.722;2022-08-19T15:46:40;23.70;90.20
8188;DHT22;4135;49.184;9.722;2022-08-19T15:49:11;23.80;91.40
8188;DHT22;4135;49.184;9.722;2022-08-19T15:51:43;23.70;91.20
8188;DHT22;4135;49.184;9.722;2022-08-19T15:54:17;23.70;92.70
8188;DHT22;4135;49.184;9.722;2022-08-19T15:56:50;23.70;92.90
8188;DHT22;4135;49.184;9.722;2022-08-19T15:59:38;23.70;92.80
8188;DHT22;4135;49.184;9.722;2022-08-19T16:02:27;23.70;93.20
8188;DHT22;4135;49.184;9.722;2022-08-19T16:05:19;23.70;93.60
8188;DHT22;4135;49.184;9.722;2022-08-19T16:08:07;23.70;94.60
8188;DHT22;4135;49.184;9.722;2022-08-19T16:10:38;23.60;95.50
8188;DHT22;4135;49.184;9.722;2022-08-19T16:13:08;23.60;97.30
8188;DHT22;4135;49.184;9.722;2022-08-19T16:15:39;23.60;96.90
8188;DHT22;4135;49.184;9.722;2022-08-19T16:18:10;23.50;97.40
8188;DHT22;4135;49.184;9.722;2022-08-19T16:20:39;23.50;97.50
8188;DHT22;4135;49.184;9.722;2022-08-19T16:23:09;23.50;98.10
8188;DHT22;4135;49.184;9.722;2022-08-19T16:25:39;23.50;98.10
8188;DHT22;4135;49.184;9.722;2022-08-19T16:28:08;23.50;98.60
8188;DHT22;4135;49.184;9.722;2022-08-19T16:30:39;23.40;99.10
8188;DHT22;4135;49.184;9.722;2022-08-19T16:33:10;23.40;99.70
8188;DHT22;4135;49.184;9.722;2022-08-19T16:35:40;23.30;99.50
8188;DHT22;4135;49.184;9.722;2022-08-19T16:38:09;23.40;99.20
8188;DHT22;4135;49.184;9.722;2022-08-19T16:40:39;23.40;98.90